sensor_id;sensor_type;location;lat;lon;timestamp;P1;durP1;ratioP1;P2;durP2;ratioP2
48596;SDS011;34382;43.160;24.148;2023-11-21T00:01:19;6.93;;;2.90;;
48596;SDS011;34382;43.160;24.148;2023-11-21T00:02:51;7.47;;;3.17;;
48596;SDS011;34382;43.160;24.148;2023-11-21T00:04:23;9.43;;;4.40;;
48596;SDS011;34382;43.160;24.148;2023-11-21T00:05:56;6.65;;;3.20;;
48596;SDS011;34382;43.160;24.148;2023-11-21T00:07:28;8.43;;;3.27;;
48596;SDS011;34382;43.160;24.148;2023-11-21T00:09:01;8.88;;;3.38;;
48596;SDS011;34382;43.160;24.148;2023-11-21T00:10:34;7.95;;;2.85;;
48596;SDS011;34382;43.160;24.148;2023-11-21T00:12:07;6.50;;;3.13;;
48596;SDS011;34382;43.160;24.148;2023-11-21T00:13:43;5.65;;;2.58;;
48596;SDS011;34382;43.160;24.148;2023-11-21T00:15:15;8.27;;;3.75;;
48596;SDS011;34382;43.160;24.148;2023-11-21T00:16:48;11.15;;;4.63;;
48596;SDS011;34382;43.160;24.148;2023-11-21T00:18:20;5.70;;;2.55;;
48596;SDS011;34382;43.160;24.148;2023-11-21T00:19:52;7.72;;;3.28;;
48596;SDS011;34382;43.160;24.148;2023-11-21T00:21:25;10.30;;;3.38;;
48596;SDS011;34382;43.160;24.148;2023-11-21T00:22:57;11.13;;;3.45;;
48596;SDS011;34382;43.160;24.148;2023-11-21T00:24:31;8.52;;;4.43;;
48596;SDS011;34382;43.160;24.148;2023-11-21T00:26:03;16.98;;;8.13;;
48596;SDS011;34382;43.160;24.148;2023-11-21T00:27:35;17.13;;;8.48;;
48596;SDS011;34382;43.160;24.148;2023-11-21T00:29:08;15.93;;;6.82;;
48596;SDS011;34382;43.160;24.148;2023-11-21T00:30:40;10.68;;;4.25;;
48596;SDS011;34382;43.160;24.148;2023-11-21T00:32:12;8.38;;;3.70;;
48596;SDS011;34382;43.160;24.148;2023-11-21T00:33:45;9.13;;;4.07;;
48596;SDS011;34382;43.160;24.148;2023-11-21T00:35:17;9.40;;;3.67;;
48596;SDS011;34382;43.160;24.148;2023-11-21T00:36:49;10.73;;;4.13;;
48596;SDS011;34382;43.160;24.148;2023-11-21T00:38:21;11.68;;;4.35;;
48596;SDS011;34382;43.160;24.148;2023-11-21T00:39:54;8.77;;;3.60;;
48596;SDS011;34382;43.160;24.148;2023-11-21T00:41:26;8.77;;;3.65;;
48596;SDS011;34382;43.160;24.148;2023-11-21T00:42:59;11.88;;;4.15;;
48596;SDS011;34382;43.160;24.148;2023-11-21T00:44:34;11.73;;;4.55;;
48596;SDS011;34382;43.160;24.148;2023-11-21T00:46:09;9.82;;;4.20;;
48596;SDS011;34382;43.160;24.148;2023-11-21T00:47:42;6.95;;;3.65;;
48596;SDS011;34382;43.160;24.148;2023-11-21T00:49:14;9.57;;;3.75;;
48596;SDS011;34382;43.160;24.148;2023-11-21T00:50:46;8.00;;;3.08;;
48596;SDS011;34382;43.160;24.148;2023-11-21T00:52:19;10.23;;;3.55;;
48596;SDS011;34382;43.160;24.148;2023-11-21T00:53:51;10.25;;;3.08;;
48596;SDS011;34382;43.160;24.148;2023-11-21T00:55:23;6.45;;;2.85;;
48596;SDS011;34382;43.160;24.148;2023-11-21T00:56:58;5.97;;;2.85;;
48596;SDS011;34382;43.160;24.148;2023-11-21T00:58:30;9.27;;;3.13;;
48596;SDS011;34382;43.160;24.148;2023-11-21T01:00:02;6.90;;;2.83;;
48596;SDS011;34382;43.160;24.148;2023-11-21T01:01:39;7.82;;;3.20;;
48596;SDS011;34382;43.160;24.148;2023-11-21T01:03:12;6.35;;;2.53;;
48596;SDS011;34382;43.160;24.148;2023-11-21T01:04:44;7.00;;;2.63;;
48596;SDS011;34382;43.160;24.148;2023-11-21T01:06:16;7.53;;;2.45;;
48596;SDS011;34382;43.160;24.148;2023-11-21T01:07:49;6.97;;;2.67;;
48596;SDS011;34382;43.160;24.148;2023-11-21T01:09:21;8.00;;;2.95;;
48596;SDS011;34382;43.160;24.148;2023-11-21T01:10:54;8.20;;;3.53;;
48596;SDS011;34382;43.160;24.148;2023-11-21T01:12:26;7.10;;;2.85;;
48596;SDS011;34382;43.160;24.148;2023-11-21T01:13:58;7.43;;;3.25;;
48596;SDS011;34382;43.160;24.148;2023-11-21T01:15:31;7.88;;;3.70;;
48596;SDS011;34382;43.160;24.148;2023-11-21T01:17:04;9.98;;;3.85;;
48596;SDS011;34382;43.160;24.148;2023-11-21T01:18:37;10.85;;;3.70;;
48596;SDS011;34382;43.160;24.148;2023-11-21T01:20:10;8.85;;;3.33;;
48596;SDS011;34382;43.160;24.148;2023-11-21T01:21:45;8.70;;;3.92;;
48596;SDS011;34382;43.160;24.148;2023-11-21T01:23:17;6.93;;;3.03;;
48596;SDS011;34382;43.160;24.148;2023-11-21T01:24:50;6.20;;;2.58;;
48596;SDS011;34382;43.160;24.148;2023-11-21T01:26:25;6.25;;;2.58;;
48596;SDS011;34382;43.160;24.148;2023-11-21T01:27:57;7.65;;;2.47;;
48596;SDS011;34382;43.160;24.148;2023-11-21T01:29:30;6.40;;;2.42;;
48596;SDS011;34382;43.160;24.148;2023-11-21T01:31:02;6.82;;;2.58;;
48596;SDS011;34382;43.160;24.148;2023-11-21T01:32:34;4.38;;;2.10;;
48596;SDS011;34382;43.160;24.148;2023-11-21T01:34:07;6.10;;;2.03;;
48596;SDS011;34382;43.160;24.148;2023-11-21T01:35:39;5.68;;;1.90;;
48596;SDS011;34382;43.160;24.148;2023-11-21T01:37:11;7.25;;;2.22;;
48596;SDS011;34382;43.160;24.148;2023-11-21T01:38:43;5.80;;;2.50;;
48596;SDS011;34382;43.160;24.148;2023-11-21T01:40:17;6.72;;;3.30;;
48596;SDS011;34382;43.160;24.148;2023-11-21T01:41:50;5.07;;;2.33;;
48596;SDS011;34382;43.160;24.148;2023-11-21T01:43:23;6.07;;;2.50;;
48596;SDS011;34382;43.160;24.148;2023-11-21T01:44:56;5.97;;;2.90;;
48596;SDS011;34382;43.160;24.148;2023-11-21T01:46:28;5.78;;;2.70;;
48596;SDS011;34382;43.160;24.148;2023-11-21T01:48:01;5.43;;;2.75;;
48596;SDS011;34382;43.160;24.148;2023-11-21T01:49:36;8.48;;;2.75;;
48596;SDS011;34382;43.160;24.148;2023-11-21T01:51:09;6.47;;;2.75;;
48596;SDS011;34382;43.160;24.148;2023-11-21T01:52:42;4.80;;;2.40;;
48596;SDS011;34382;43.160;24.148;2023-11-21T01:54:16;6.32;;;2.50;;
48596;SDS011;34382;43.160;24.148;2023-11-21T01:55:49;5.30;;;2.40;;
48596;SDS011;34382;43.160;24.148;2023-11-21T01:57:21;8.18;;;2.90;;
48596;SDS011;34382;43.160;24.148;2023-11-21T01:58:53;6.30;;;2.25;;
48596;SDS011;34382;43.160;24.148;2023-11-21T02:00:25;6.13;;;2.72;;
48596;SDS011;34382;43.160;24.148;2023-11-21T02:02:00;8.07;;;2.58;;
48596;SDS011;34382;43.160;24.148;2023-11-21T02:03:33;6.75;;;2.80;;
48596;SDS011;34382;43.160;24.148;2023-11-21T02:05:05;8.68;;;2.80;;
48596;SDS011;34382;43.160;24.148;2023-11-21T02:06:39;6.00;;;2.78;;
48596;SDS011;34382;43.160;24.148;2023-11-21T02:08:12;7.13;;;2.63;;
48596;SDS011;34382;43.160;24.148;2023-11-21T02:09:44;5.78;;;2.67;;
48596;SDS011;34382;43.160;24.148;2023-11-21T02:11:17;7.13;;;2.67;;
48596;SDS011;34382;43.160;24.148;2023-11-21T02:12:51;6.00;;;2.60;;
48596;SDS011;34382;43.160;24.148;2023-11-21T02:14:23;6.10;;;2.20;;
48596;SDS011;34382;43.160;24.148;2023-11-21T02:15:56;6.82;;;2.65;;
48596;SDS011;34382;43.160;24.148;2023-11-21T02:17:28;7.38;;;2.95;;
48596;SDS011;34382;43.160;24.148;2023-11-21T02:19:04;6.95;;;2.83;;
48596;SDS011;34382;43.160;24.148;2023-11-21T02:20:40;7.57;;;2.53;;
48596;SDS011;34382;43.160;24.148;2023-11-21T02:22:14;5.90;;;2.88;;
48596;SDS011;34382;43.160;24.148;2023-11-21T02:23:48;9.02;;;2.58;;
48596;SDS011;34382;43.160;24.148;2023-11-21T02:25:21;7.47;;;2.33;;
48596;SDS011;34382;43.160;24.148;2023-11-21T02:26:53;5.28;;;2.40;;
48596;SDS011;34382;43.160;24.148;2023-11-21T02:28:25;5.20;;;2.20;;
48596;SDS011;34382;43.160;24.148;2023-11-21T02:29:57;4.93;;;1.93;;
48596;SDS011;34382;43.160;24.148;2023-11-21T02:31:30;5.80;;;2.40;;
48596;SDS011;34382;43.160;24.148;2023-11-21T02:33:05;4.85;;;2.30;;
48596;SDS011;34382;43.160;24.148;2023-11-21T02:34:38;5.55;;;2.20;;
48596;SDS011;34382;43.160;24.148;2023-11-21T02:36:11;6.05;;;2.05;;
48596;SDS011;34382;43.160;24.148;2023-11-21T02:37:43;4.88;;;2.00;;
48596;SDS011;34382;43.160;24.148;2023-11-21T02:39:15;4.80;;;2.22;;
48596;SDS011;34382;43.160;24.148;2023-11-21T02:40:54;6.85;;;2.20;;
48596;SDS011;34382;43.160;24.148;2023-11-21T02:42:26;5.30;;;2.05;;
48596;SDS011;34382;43.160;24.148;2023-11-21T02:43:58;3.63;;;1.88;;
48596;SDS011;34382;43.160;24.148;2023-11-21T02:45:30;4.28;;;1.90;;
48596;SDS011;34382;43.160;24.148;2023-11-21T02:47:05;4.65;;;2.10;;
48596;SDS011;34382;43.160;24.148;2023-11-21T02:48:38;4.88;;;1.83;;
48596;SDS011;34382;43.160;24.148;2023-11-21T02:50:10;4.88;;;1.80;;
48596;SDS011;34382;43.160;24.148;2023-11-21T02:51:43;5.17;;;2.20;;
48596;SDS011;34382;43.160;24.148;2023-11-21T02:53:15;5.53;;;2.00;;
48596;SDS011;34382;43.160;24.148;2023-11-21T02:54:47;4.47;;;2.03;;
48596;SDS011;34382;43.160;24.148;2023-11-21T02:56:22;4.18;;;1.90;;
48596;SDS011;34382;43.160;24.148;2023-11-21T02:57:54;6.53;;;2.42;;
48596;SDS011;34382;43.160;24.148;2023-11-21T02:59:30;4.47;;;1.77;;
48596;SDS011;34382;43.160;24.148;2023-11-21T03:01:02;4.60;;;1.85;;
48596;SDS011;34382;43.160;24.148;2023-11-21T03:02:37;4.38;;;1.90;;
48596;SDS011;34382;43.160;24.148;2023-11-21T03:04:12;5.55;;;2.25;;
48596;SDS011;34382;43.160;24.148;2023-11-21T03:05:49;5.18;;;1.83;;
48596;SDS011;34382;43.160;24.148;2023-11-21T03:07:21;5.35;;;2.10;;
48596;SDS011;34382;43.160;24.148;2023-11-21T03:08:54;3.45;;;1.58;;
48596;SDS011;34382;43.160;24.148;2023-11-21T03:10:26;4.80;;;1.92;;
48596;SDS011;34382;43.160;24.148;2023-11-21T03:11:59;3.28;;;1.70;;
48596;SDS011;34382;43.160;24.148;2023-11-21T03:13:31;6.82;;;2.00;;
48596;SDS011;34382;43.160;24.148;2023-11-21T03:15:06;5.38;;;1.92;;
48596;SDS011;34382;43.160;24.148;2023-11-21T03:16:39;5.40;;;1.90;;
48596;SDS011;34382;43.160;24.148;2023-11-21T03:18:13;4.97;;;1.95;;
48596;SDS011;34382;43.160;24.148;2023-11-21T03:19:45;5.13;;;2.10;;
48596;SDS011;34382;43.160;24.148;2023-11-21T03:21:18;5.33;;;2.20;;
48596;SDS011;34382;43.160;24.148;2023-11-21T03:22:50;4.55;;;2.13;;
48596;SDS011;34382;43.160;24.148;2023-11-21T03:24:23;5.50;;;2.00;;
48596;SDS011;34382;43.160;24.148;2023-11-21T03:25:55;5.82;;;2.05;;
48596;SDS011;34382;43.160;24.148;2023-11-21T03:27:27;5.15;;;1.88;;
48596;SDS011;34382;43.160;24.148;2023-11-21T03:28:59;4.40;;;1.90;;
48596;SDS011;34382;43.160;24.148;2023-11-21T03:30:32;5.43;;;2.00;;
48596;SDS011;34382;43.160;24.148;2023-11-21T03:32:04;7.80;;;2.50;;
48596;SDS011;34382;43.160;24.148;2023-11-21T03:33:37;5.90;;;2.30;;
48596;SDS011;34382;43.160;24.148;2023-11-21T03:35:09;9.40;;;2.60;;
48596;SDS011;34382;43.160;24.148;2023-11-21T03:36:42;7.25;;;2.65;;
48596;SDS011;34382;43.160;24.148;2023-11-21T03:38:15;4.47;;;2.10;;
48596;SDS011;34382;43.160;24.148;2023-11-21T03:39:47;4.57;;;2.15;;
48596;SDS011;34382;43.160;24.148;2023-11-21T03:41:20;4.75;;;1.85;;
48596;SDS011;34382;43.160;24.148;2023-11-21T03:42:52;4.38;;;2.10;;
48596;SDS011;34382;43.160;24.148;2023-11-21T03:44:24;2.80;;;1.65;;
48596;SDS011;34382;43.160;24.148;2023-11-21T03:45:56;6.30;;;1.90;;
48596;SDS011;34382;43.160;24.148;2023-11-21T03:47:28;5.78;;;1.80;;
48596;SDS011;34382;43.160;24.148;2023-11-21T03:49:01;3.63;;;1.77;;
48596;SDS011;34382;43.160;24.148;2023-11-21T03:50:33;4.93;;;2.03;;
48596;SDS011;34382;43.160;24.148;2023-11-21T03:52:05;5.75;;;1.92;;
48596;SDS011;34382;43.160;24.148;2023-11-21T03:53:39;3.70;;;1.88;;
48596;SDS011;34382;43.160;24.148;2023-11-21T03:55:11;6.50;;;1.98;;
48596;SDS011;34382;43.160;24.148;2023-11-21T03:56:43;3.45;;;1.73;;
48596;SDS011;34382;43.160;24.148;2023-11-21T03:58:16;3.65;;;1.70;;
48596;SDS011;34382;43.160;24.148;2023-11-21T03:59:48;4.45;;;1.70;;
48596;SDS011;34382;43.160;24.148;2023-11-21T04:01:23;3.70;;;1.88;;
48596;SDS011;34382;43.160;24.148;2023-11-21T04:02:58;3.72;;;1.60;;
48596;SDS011;34382;43.160;24.148;2023-11-21T04:04:31;5.35;;;1.95;;
48596;SDS011;34382;43.160;24.148;2023-11-21T04:06:03;4.45;;;1.70;;
48596;SDS011;34382;43.160;24.148;2023-11-21T04:07:38;5.25;;;1.90;;
48596;SDS011;34382;43.160;24.148;2023-11-21T04:09:10;5.40;;;2.42;;
48596;SDS011;34382;43.160;24.148;2023-11-21T04:10:42;4.43;;;1.73;;
48596;SDS011;34382;43.160;24.148;2023-11-21T04:12:15;4.20;;;1.77;;
48596;SDS011;34382;43.160;24.148;2023-11-21T04:13:47;4.63;;;1.65;;
48596;SDS011;34382;43.160;24.148;2023-11-21T04:15:19;4.85;;;1.95;;
48596;SDS011;34382;43.160;24.148;2023-11-21T04:16:51;5.88;;;2.03;;
48596;SDS011;34382;43.160;24.148;2023-11-21T04:18:23;5.18;;;1.88;;
48596;SDS011;34382;43.160;24.148;2023-11-21T04:19:56;2.97;;;1.63;;
48596;SDS011;34382;43.160;24.148;2023-11-21T04:21:28;5.68;;;1.90;;
48596;SDS011;34382;43.160;24.148;2023-11-21T04:23:00;4.15;;;1.73;;
48596;SDS011;34382;43.160;24.148;2023-11-21T04:24:32;7.22;;;1.85;;
48596;SDS011;34382;43.160;24.148;2023-11-21T04:26:05;5.05;;;1.98;;
48596;SDS011;34382;43.160;24.148;2023-11-21T04:27:38;6.85;;;2.10;;
48596;SDS011;34382;43.160;24.148;2023-11-21T04:29:15;5.93;;;2.05;;
48596;SDS011;34382;43.160;24.148;2023-11-21T04:30:47;3.25;;;1.80;;
48596;SDS011;34382;43.160;24.148;2023-11-21T04:32:20;4.93;;;1.70;;
48596;SDS011;34382;43.160;24.148;2023-11-21T04:33:52;4.00;;;1.65;;
48596;SDS011;34382;43.160;24.148;2023-11-21T04:35:25;4.32;;;1.88;;
48596;SDS011;34382;43.160;24.148;2023-11-21T04:36:57;5.47;;;1.90;;
48596;SDS011;34382;43.160;24.148;2023-11-21T04:38:29;5.15;;;1.88;;
48596;SDS011;34382;43.160;24.148;2023-11-21T04:40:01;4.35;;;1.77;;
48596;SDS011;34382;43.160;24.148;2023-11-21T04:41:38;4.60;;;1.70;;
48596;SDS011;34382;43.160;24.148;2023-11-21T04:43:11;4.80;;;1.85;;
48596;SDS011;34382;43.160;24.148;2023-11-21T04:44:43;5.20;;;1.80;;
48596;SDS011;34382;43.160;24.148;2023-11-21T04:46:16;4.90;;;2.03;;
48596;SDS011;34382;43.160;24.148;2023-11-21T04:47:48;3.90;;;1.75;;
48596;SDS011;34382;43.160;24.148;2023-11-21T04:49:20;6.05;;;2.15;;
48596;SDS011;34382;43.160;24.148;2023-11-21T04:50:53;5.60;;;1.95;;
48596;SDS011;34382;43.160;24.148;2023-11-21T04:52:25;5.80;;;1.92;;
48596;SDS011;34382;43.160;24.148;2023-11-21T04:53:57;4.03;;;1.67;;
48596;SDS011;34382;43.160;24.148;2023-11-21T04:55:30;3.35;;;1.60;;
48596;SDS011;34382;43.160;24.148;2023-11-21T04:57:02;4.97;;;1.73;;
48596;SDS011;34382;43.160;24.148;2023-11-21T04:58:35;6.50;;;1.92;;
48596;SDS011;34382;43.160;24.148;2023-11-21T05:00:11;4.30;;;1.92;;
48596;SDS011;34382;43.160;24.148;2023-11-21T05:01:44;3.78;;;1.88;;
48596;SDS011;34382;43.160;24.148;2023-11-21T05:03:17;3.30;;;1.52;;
48596;SDS011;34382;43.160;24.148;2023-11-21T05:04:49;5.28;;;1.73;;
48596;SDS011;34382;43.160;24.148;2023-11-21T05:06:21;3.08;;;1.52;;
48596;SDS011;34382;43.160;24.148;2023-11-21T05:07:55;4.95;;;1.80;;
48596;SDS011;34382;43.160;24.148;2023-11-21T05:09:28;5.63;;;1.77;;
48596;SDS011;34382;43.160;24.148;2023-11-21T05:11:03;6.47;;;2.08;;
48596;SDS011;34382;43.160;24.148;2023-11-21T05:12:36;3.53;;;1.98;;
48596;SDS011;34382;43.160;24.148;2023-11-21T05:14:11;3.45;;;1.67;;
48596;SDS011;34382;43.160;24.148;2023-11-21T05:15:44;5.15;;;1.73;;
48596;SDS011;34382;43.160;24.148;2023-11-21T05:17:16;3.67;;;1.67;;
48596;SDS011;34382;43.160;24.148;2023-11-21T05:18:49;2.93;;;1.67;;
48596;SDS011;34382;43.160;24.148;2023-11-21T05:20:22;4.93;;;1.77;;
48596;SDS011;34382;43.160;24.148;2023-11-21T05:21:55;4.45;;;1.70;;
48596;SDS011;34382;43.160;24.148;2023-11-21T05:23:27;6.70;;;1.88;;
48596;SDS011;34382;43.160;24.148;2023-11-21T05:24:59;4.97;;;1.70;;
48596;SDS011;34382;43.160;24.148;2023-11-21T05:26:32;3.28;;;1.52;;
48596;SDS011;34382;43.160;24.148;2023-11-21T05:28:04;4.15;;;1.80;;
48596;SDS011;34382;43.160;24.148;2023-11-21T05:29:38;3.33;;;1.65;;
48596;SDS011;34382;43.160;24.148;2023-11-21T05:31:10;4.70;;;1.80;;
48596;SDS011;34382;43.160;24.148;2023-11-21T05:32:47;5.00;;;1.80;;
48596;SDS011;34382;43.160;24.148;2023-11-21T05:34:21;4.50;;;1.65;;
48596;SDS011;34382;43.160;24.148;2023-11-21T05:35:55;4.45;;;1.75;;
48596;SDS011;34382;43.160;24.148;2023-11-21T05:37:28;4.50;;;1.75;;
48596;SDS011;34382;43.160;24.148;2023-11-21T05:39:00;4.00;;;1.60;;
48596;SDS011;34382;43.160;24.148;2023-11-21T05:40:32;4.28;;;1.67;;
48596;SDS011;34382;43.160;24.148;2023-11-21T05:42:05;5.03;;;1.88;;
48596;SDS011;34382;43.160;24.148;2023-11-21T05:43:38;4.20;;;1.73;;
48596;SDS011;34382;43.160;24.148;2023-11-21T05:45:10;5.32;;;1.65;;
48596;SDS011;34382;43.160;24.148;2023-11-21T05:46:44;4.05;;;1.55;;
48596;SDS011;34382;43.160;24.148;2023-11-21T05:48:16;3.55;;;1.50;;
48596;SDS011;34382;43.160;24.148;2023-11-21T05:49:48;3.70;;;1.70;;
48596;SDS011;34382;43.160;24.148;2023-11-21T05:51:22;5.30;;;2.22;;
48596;SDS011;34382;43.160;24.148;2023-11-21T05:52:55;6.70;;;2.20;;
48596;SDS011;34382;43.160;24.148;2023-11-21T05:54:27;4.82;;;1.98;;
48596;SDS011;34382;43.160;24.148;2023-11-21T05:56:00;4.83;;;1.83;;
48596;SDS011;34382;43.160;24.148;2023-11-21T05:57:35;3.83;;;1.63;;
48596;SDS011;34382;43.160;24.148;2023-11-21T05:59:08;4.05;;;1.73;;
48596;SDS011;34382;43.160;24.148;2023-11-21T06:00:40;6.68;;;2.30;;
48596;SDS011;34382;43.160;24.148;2023-11-21T06:02:13;8.60;;;2.60;;
48596;SDS011;34382;43.160;24.148;2023-11-21T06:03:45;2.63;;;1.65;;
48596;SDS011;34382;43.160;24.148;2023-11-21T06:05:18;4.03;;;1.83;;
48596;SDS011;34382;43.160;24.148;2023-11-21T06:08:24;27.75;;;17.75;;
48596;SDS011;34382;43.160;24.148;2023-11-21T06:09:56;10.10;;;4.60;;
48596;SDS011;34382;43.160;24.148;2023-11-21T06:11:29;15.85;;;9.10;;
48596;SDS011;34382;43.160;24.148;2023-11-21T06:13:01;17.77;;;9.80;;
48596;SDS011;34382;43.160;24.148;2023-11-21T06:14:35;17.52;;;9.95;;
48596;SDS011;34382;43.160;24.148;2023-11-21T06:16:08;19.75;;;12.98;;
48596;SDS011;34382;43.160;24.148;2023-11-21T06:17:42;27.58;;;17.17;;
48596;SDS011;34382;43.160;24.148;2023-11-21T06:19:16;24.77;;;13.45;;
48596;SDS011;34382;43.160;24.148;2023-11-21T06:20:49;21.48;;;12.48;;
48596;SDS011;34382;43.160;24.148;2023-11-21T06:22:22;18.98;;;10.45;;
48596;SDS011;34382;43.160;24.148;2023-11-21T06:23:54;22.52;;;12.60;;
48596;SDS011;34382;43.160;24.148;2023-11-21T06:25:28;18.52;;;12.48;;
48596;SDS011;34382;43.160;24.148;2023-11-21T06:27:03;20.83;;;12.77;;
48596;SDS011;34382;43.160;24.148;2023-11-21T06:28:36;18.80;;;12.02;;
48596;SDS011;34382;43.160;24.148;2023-11-21T06:30:09;22.33;;;12.48;;
48596;SDS011;34382;43.160;24.148;2023-11-21T06:33:37;30.17;;;16.70;;
48596;SDS011;34382;43.160;24.148;2023-11-21T06:35:10;31.63;;;19.83;;
48596;SDS011;34382;43.160;24.148;2023-11-21T06:36:45;25.42;;;14.82;;
48596;SDS011;34382;43.160;24.148;2023-11-21T06:38:17;27.48;;;15.55;;
48596;SDS011;34382;43.160;24.148;2023-11-21T06:39:49;31.63;;;18.80;;
48596;SDS011;34382;43.160;24.148;2023-11-21T06:41:24;29.63;;;18.92;;
48596;SDS011;34382;43.160;24.148;2023-11-21T06:42:56;28.17;;;16.35;;
48596;SDS011;34382;43.160;24.148;2023-11-21T06:44:30;25.55;;;16.58;;
48596;SDS011;34382;43.160;24.148;2023-11-21T06:46:02;24.45;;;12.45;;
48596;SDS011;34382;43.160;24.148;2023-11-21T06:49:10;19.42;;;11.75;;
48596;SDS011;34382;43.160;24.148;2023-11-21T06:50:42;19.90;;;10.82;;
48596;SDS011;34382;43.160;24.148;2023-11-21T06:52:15;11.80;;;6.28;;
48596;SDS011;34382;43.160;24.148;2023-11-21T06:53:47;8.15;;;3.05;;
48596;SDS011;34382;43.160;24.148;2023-11-21T06:55:19;5.55;;;2.05;;
48596;SDS011;34382;43.160;24.148;2023-11-21T06:56:54;5.10;;;2.00;;
48596;SDS011;34382;43.160;24.148;2023-11-21T06:58:28;7.20;;;2.40;;
48596;SDS011;34382;43.160;24.148;2023-11-21T07:00:00;5.03;;;1.92;;
48596;SDS011;34382;43.160;24.148;2023-11-21T07:01:33;6.28;;;2.47;;
48596;SDS011;34382;43.160;24.148;2023-11-21T07:03:10;7.65;;;2.35;;
48596;SDS011;34382;43.160;24.148;2023-11-21T07:04:43;5.88;;;2.25;;
48596;SDS011;34382;43.160;24.148;2023-11-21T07:06:17;5.47;;;2.20;;
48596;SDS011;34382;43.160;24.148;2023-11-21T07:07:49;5.45;;;2.40;;
48596;SDS011;34382;43.160;24.148;2023-11-21T07:09:22;6.95;;;3.03;;
48596;SDS011;34382;43.160;24.148;2023-11-21T07:10:54;8.18;;;3.10;;
48596;SDS011;34382;43.160;24.148;2023-11-21T07:12:27;7.47;;;3.03;;
48596;SDS011;34382;43.160;24.148;2023-11-21T07:13:59;12.13;;;4.35;;
48596;SDS011;34382;43.160;24.148;2023-11-21T07:15:31;8.88;;;4.03;;
48596;SDS011;34382;43.160;24.148;2023-11-21T07:17:04;9.27;;;3.60;;
48596;SDS011;34382;43.160;24.148;2023-11-21T07:18:36;9.32;;;4.68;;
48596;SDS011;34382;43.160;24.148;2023-11-21T07:20:12;9.50;;;4.07;;
48596;SDS011;34382;43.160;24.148;2023-11-21T07:21:45;7.82;;;3.55;;
48596;SDS011;34382;43.160;24.148;2023-11-21T07:23:18;8.00;;;3.33;;
48596;SDS011;34382;43.160;24.148;2023-11-21T07:24:50;9.63;;;3.58;;
48596;SDS011;34382;43.160;24.148;2023-11-21T07:26:22;11.82;;;3.95;;
48596;SDS011;34382;43.160;24.148;2023-11-21T07:27:56;10.38;;;3.80;;
48596;SDS011;34382;43.160;24.148;2023-11-21T07:29:28;9.30;;;3.83;;
48596;SDS011;34382;43.160;24.148;2023-11-21T07:31:01;10.88;;;3.63;;
48596;SDS011;34382;43.160;24.148;2023-11-21T07:34:07;8.68;;;4.03;;
48596;SDS011;34382;43.160;24.148;2023-11-21T07:35:40;10.60;;;4.70;;
48596;SDS011;34382;43.160;24.148;2023-11-21T07:37:12;10.25;;;4.82;;
48596;SDS011;34382;43.160;24.148;2023-11-21T07:38:44;9.65;;;3.92;;
48596;SDS011;34382;43.160;24.148;2023-11-21T07:40:17;8.05;;;3.75;;
48596;SDS011;34382;43.160;24.148;2023-11-21T07:41:49;9.65;;;4.32;;
48596;SDS011;34382;43.160;24.148;2023-11-21T07:43:21;9.98;;;3.90;;
48596;SDS011;34382;43.160;24.148;2023-11-21T07:44:54;9.10;;;3.50;;
48596;SDS011;34382;43.160;24.148;2023-11-21T07:46:29;15.30;;;4.28;;
48596;SDS011;34382;43.160;24.148;2023-11-21T07:48:01;8.05;;;3.20;;
48596;SDS011;34382;43.160;24.148;2023-11-21T07:49:35;8.73;;;3.70;;
48596;SDS011;34382;43.160;24.148;2023-11-21T07:51:08;6.80;;;3.10;;
48596;SDS011;34382;43.160;24.148;2023-11-21T07:52:40;9.20;;;3.85;;
48596;SDS011;34382;43.160;24.148;2023-11-21T07:54:13;9.45;;;3.20;;
48596;SDS011;34382;43.160;24.148;2023-11-21T07:55:45;9.95;;;3.88;;
48596;SDS011;34382;43.160;24.148;2023-11-21T07:57:18;7.82;;;2.88;;
48596;SDS011;34382;43.160;24.148;2023-11-21T07:58:51;6.85;;;3.05;;
48596;SDS011;34382;43.160;24.148;2023-11-21T08:00:25;8.65;;;3.42;;
48596;SDS011;34382;43.160;24.148;2023-11-21T08:02:01;7.53;;;3.30;;
48596;SDS011;34382;43.160;24.148;2023-11-21T08:03:34;6.93;;;2.40;;
48596;SDS011;34382;43.160;24.148;2023-11-21T08:05:06;8.50;;;2.65;;
48596;SDS011;34382;43.160;24.148;2023-11-21T08:06:46;7.25;;;2.53;;
48596;SDS011;34382;43.160;24.148;2023-11-21T08:08:18;6.47;;;2.47;;
48596;SDS011;34382;43.160;24.148;2023-11-21T08:09:50;7.75;;;2.70;;
48596;SDS011;34382;43.160;24.148;2023-11-21T08:11:23;5.97;;;2.22;;
48596;SDS011;34382;43.160;24.148;2023-11-21T08:12:55;4.80;;;2.15;;
48596;SDS011;34382;43.160;24.148;2023-11-21T08:14:27;6.78;;;2.38;;
48596;SDS011;34382;43.160;24.148;2023-11-21T08:16:00;6.80;;;2.20;;
48596;SDS011;34382;43.160;24.148;2023-11-21T08:17:35;8.05;;;2.60;;
48596;SDS011;34382;43.160;24.148;2023-11-21T08:19:07;9.02;;;3.50;;
48596;SDS011;34382;43.160;24.148;2023-11-21T08:20:41;6.93;;;3.00;;
48596;SDS011;34382;43.160;24.148;2023-11-21T08:22:15;7.95;;;2.97;;
48596;SDS011;34382;43.160;24.148;2023-11-21T08:23:49;8.65;;;3.00;;
48596;SDS011;34382;43.160;24.148;2023-11-21T08:25:25;7.93;;;2.92;;
48596;SDS011;34382;43.160;24.148;2023-11-21T08:26:58;7.18;;;2.80;;
48596;SDS011;34382;43.160;24.148;2023-11-21T08:28:31;7.60;;;3.28;;
48596;SDS011;34382;43.160;24.148;2023-11-21T08:30:03;8.00;;;3.28;;
48596;SDS011;34382;43.160;24.148;2023-11-21T08:31:36;7.85;;;3.55;;
48596;SDS011;34382;43.160;24.148;2023-11-21T08:34:42;9.35;;;3.70;;
48596;SDS011;34382;43.160;24.148;2023-11-21T08:36:16;8.77;;;3.72;;
48596;SDS011;34382;43.160;24.148;2023-11-21T08:37:50;10.43;;;4.55;;
48596;SDS011;34382;43.160;24.148;2023-11-21T08:39:24;9.23;;;3.92;;
48596;SDS011;34382;43.160;24.148;2023-11-21T08:40:58;9.38;;;3.80;;
48596;SDS011;34382;43.160;24.148;2023-11-21T08:47:24;8.50;;;3.85;;
48596;SDS011;34382;43.160;24.148;2023-11-21T08:48:56;7.83;;;3.63;;
48596;SDS011;34382;43.160;24.148;2023-11-21T08:52:01;7.88;;;3.47;;
48596;SDS011;34382;43.160;24.148;2023-11-21T08:53:34;9.10;;;3.70;;
48596;SDS011;34382;43.160;24.148;2023-11-21T08:55:06;8.55;;;3.58;;
48596;SDS011;34382;43.160;24.148;2023-11-21T08:56:44;10.93;;;3.80;;
48596;SDS011;34382;43.160;24.148;2023-11-21T08:58:16;8.30;;;3.53;;
48596;SDS011;34382;43.160;24.148;2023-11-21T08:59:49;9.10;;;3.50;;
48596;SDS011;34382;43.160;24.148;2023-11-21T09:01:27;10.48;;;3.72;;
48596;SDS011;34382;43.160;24.148;2023-11-21T09:03:03;10.80;;;4.25;;
48596;SDS011;34382;43.160;24.148;2023-11-21T09:04:40;9.77;;;4.10;;
48596;SDS011;34382;43.160;24.148;2023-11-21T09:06:14;11.27;;;3.70;;
48596;SDS011;34382;43.160;24.148;2023-11-21T09:07:46;11.38;;;4.95;;
48596;SDS011;34382;43.160;24.148;2023-11-21T09:09:20;12.80;;;4.97;;
48596;SDS011;34382;43.160;24.148;2023-11-21T09:10:52;9.95;;;4.30;;
48596;SDS011;34382;43.160;24.148;2023-11-21T09:12:25;11.35;;;5.07;;
48596;SDS011;34382;43.160;24.148;2023-11-21T09:13:57;10.63;;;5.27;;
48596;SDS011;34382;43.160;24.148;2023-11-21T09:15:30;13.02;;;4.80;;
48596;SDS011;34382;43.160;24.148;2023-11-21T09:17:02;9.73;;;4.50;;
48596;SDS011;34382;43.160;24.148;2023-11-21T09:18:35;10.95;;;4.30;;
48596;SDS011;34382;43.160;24.148;2023-11-21T09:20:07;9.40;;;3.92;;
48596;SDS011;34382;43.160;24.148;2023-11-21T09:21:42;12.57;;;3.80;;
48596;SDS011;34382;43.160;24.148;2023-11-21T09:23:14;9.88;;;3.70;;
48596;SDS011;34382;43.160;24.148;2023-11-21T09:24:47;8.32;;;3.60;;